sensor_id;sensor_type;location;lat;lon;timestamp;temperature;humidity
3005;DHT22;1512;51.486;6.610;2022-08-02T00:02:47;17.40;99.90
3005;DHT22;1512;51.486;6.610;2022-08-02T00:06:56;17.40;99.90
3005;DHT22;1512;51.486;6.610;2022-08-02T00:11:04;17.40;99.90
3005;DHT22;1512;51.486;6.610;2022-08-02T00:15:14;17.30;99.90
3005;DHT22;1512;51.486;6.610;2022-08-02T00:19:23;17.30;99.90
3005;DHT22;1512;51.486;6.610;2022-08-02T00:23:32;17.20;99.90
3005;DHT22;1512;51.486;6.610;2022-08-02T00:28:02;17.20;99.90
3005;DHT22;1512;51.486;6.610;2022-08-02T00:32:10;17.00;99.90
3005;DHT22;1512;51.486;6.610;2022-08-02T00:36:20;17.00;99.90
3005;DHT22;1512;51.486;6.610;2022-08-02T00:40:28;17.00;99.90
3005;DHT22;1512;51.486;6.610;2022-08-02T00:44:37;17.00;99.90
3005;DHT22;1512;51.486;6.610;2022-08-02T00:48:46;17.10;99.90
3005;DHT22;1512;51.486;6.610;2022-08-02T00:52:56;17.00;99.90
3005;DHT22;1512;51.486;6.610;2022-08-02T00:57:05;17.00;99.90
3005;DHT22;1512;51.486;6.610;2022-08-02T01:01:15;17.00;99.90
3005;DHT22;1512;51.486;6.610;2022-08-02T01:05:24;17.00;99.90
3005;DHT22;1512;51.486;6.610;2022-08-02T01:09:33;17.00;99.90
3005;DHT22;1512;51.486;6.610;2022-08-02T01:14:02;16.90;99.90
3005;DHT22;1512;51.486;6.610;2022-08-02T01:18:15;16.90;99.90
3005;DHT22;1512;51.486;6.610;2022-08-02T01:22:43;17.00;99.90
3005;DHT22;1512;51.486;6.610;2022-08-02T01:31:33;16.80;99.90
3005;DHT22;1512;51.486;6.610;2022-08-02T01:35:44;16.80;99.90
3005;DHT22;1512;51.486;6.610;2022-08-02T01:39:59;16.80;99.90
3005;DHT22;1512;51.486;6.610;2022-08-02T01:44:09;16.80;99.90
3005;DHT22;1512;51.486;6.610;2022-08-02T01:48:19;16.70;99.90
3005;DHT22;1512;51.486;6.610;2022-08-02T01:52:35;16.70;99.90
3005;DHT22;1512;51.486;6.610;2022-08-02T01:56:44;16.70;99.90
3005;DHT22;1512;51.486;6.610;2022-08-02T02:00:54;16.70;99.90
3005;DHT22;1512;51.486;6.610;2022-08-02T02:05:05;16.70;99.90
3005;DHT22;1512;51.486;6.610;2022-08-02T02:09:34;16.60;99.90
3005;DHT22;1512;51.486;6.610;2022-08-02T02:13:46;16.60;99.90
3005;DHT22;1512;51.486;6.610;2022-08-02T02:17:57;16.50;99.90
3005;DHT22;1512;51.486;6.610;2022-08-02T02:22:08;16.50;99.90
3005;DHT22;1512;51.486;6.610;2022-08-02T02:26:19;16.50;99.90
3005;DHT22;1512;51.486;6.610;2022-08-02T02:30:31;16.40;99.90
3005;DHT22;1512;51.486;6.610;2022-08-02T02:34:42;16.40;99.90
3005;DHT22;1512;51.486;6.610;2022-08-02T02:38:52;16.30;99.90
3005;DHT22;1512;51.486;6.610;2022-08-02T02:43:02;16.10;99.90
3005;DHT22;1512;51.486;6.610;2022-08-02T02:47:13;16.10;99.90
3005;DHT22;1512;51.486;6.610;2022-08-02T02:51:23;16.10;99.90
3005;DHT22;1512;51.486;6.610;2022-08-02T02:55:32;16.10;99.90
3005;DHT22;1512;51.486;6.610;2022-08-02T02:59:41;16.10;99.90
3005;DHT22;1512;51.486;6.610;2022-08-02T03:03:53;16.00;99.90
3005;DHT22;1512;51.486;6.610;2022-08-02T03:08:21;16.00;99.90
3005;DHT22;1512;51.486;6.610;2022-08-02T03:12:32;16.00;99.90
3005;DHT22;1512;51.486;6.610;2022-08-02T03:16:46;16.00;99.90
3005;DHT22;1512;51.486;6.610;2022-08-02T03:21:14;16.00;99.90
3005;DHT22;1512;51.486;6.610;2022-08-02T03:25:34;15.90;99.90
3005;DHT22;1512;51.486;6.610;2022-08-02T03:29:46;15.90;99.90
3005;DHT22;1512;51.486;6.610;2022-08-02T03:34:06;15.90;99.90
3005;DHT22;1512;51.486;6.610;2022-08-02T03:38:27;15.90;99.90
3005;DHT22;1512;51.486;6.610;2022-08-02T03:42:51;15.80;99.90
3005;DHT22;1512;51.486;6.610;2022-08-02T03:47:16;15.80;99.90
3005;DHT22;1512;51.486;6.610;2022-08-02T03:51:42;15.80;99.90
3005;DHT22;1512;51.486;6.610;2022-08-02T03:56:12;15.80;99.90
3005;DHT22;1512;51.486;6.610;2022-08-02T04:00:41;15.80;99.90
3005;DHT22;1512;51.486;6.610;2022-08-02T04:05:20;15.80;99.90
3005;DHT22;1512;51.486;6.610;2022-08-02T04:09:49;15.80;99.90
3005;DHT22;1512;51.486;6.610;2022-08-02T04:14:18;15.80;99.90
3005;DHT22;1512;51.486;6.610;2022-08-02T04:18:55;15.80;99.90
3005;DHT22;1512;51.486;6.610;2022-08-02T04:23:21;15.80;99.90
3005;DHT22;1512;51.486;6.610;2022-08-02T04:28:09;15.80;99.90
3005;DHT22;1512;51.486;6.610;2022-08-02T04:32:17;15.70;99.90
3005;DHT22;1512;51.486;6.610;2022-08-02T04:36:36;15.70;99.90
3005;DHT22;1512;51.486;6.610;2022-08-02T04:41:13;15.80;99.90
3005;DHT22;1512;51.486;6.610;2022-08-02T04:45:31;15.80;99.90
3005;DHT22;1512;51.486;6.610;2022-08-02T04:50:20;15.80;99.90
3005;DHT22;1512;51.486;6.610;2022-08-02T04:54:47;15.80;99.90
3005;DHT22;1512;51.486;6.610;2022-08-02T04:59:15;15.90;99.90
3005;DHT22;1512;51.486;6.610;2022-08-02T05:03:36;15.90;99.90
3005;DHT22;1512;51.486;6.610;2022-08-02T05:08:07;16.00;99.90
3005;DHT22;1512;51.486;6.610;2022-08-02T05:12:32;16.10;99.90
3005;DHT22;1512;51.486;6.610;2022-08-02T05:16:55;16.10;99.90
3005;DHT22;1512;51.486;6.610;2022-08-02T05:21:16;16.10;99.90
3005;DHT22;1512;51.486;6.610;2022-08-02T05:25:42;16.20;99.90
3005;DHT22;1512;51.486;6.610;2022-08-02T05:30:05;16.30;99.90
3005;DHT22;1512;51.486;6.610;2022-08-02T05:34:24;16.40;99.90
3005;DHT22;1512;51.486;6.610;2022-08-02T05:38:59;16.40;99.90
3005;DHT22;1512;51.486;6.610;2022-08-02T05:43:12;16.50;99.90
3005;DHT22;1512;51.486;6.610;2022-08-02T05:47:38;16.50;99.90
3005;DHT22;1512;51.486;6.610;2022-08-02T05:52:04;16.60;99.90
3005;DHT22;1512;51.486;6.610;2022-08-02T05:56:38;16.70;99.90
3005;DHT22;1512;51.486;6.610;2022-08-02T06:00:58;16.80;99.90
3005;DHT22;1512;51.486;6.610;2022-08-02T06:05:10;16.90;99.90
3005;DHT22;1512;51.486;6.610;2022-08-02T06:14:08;17.10;99.90
3005;DHT22;1512;51.486;6.610;2022-08-02T06:18:33;17.20;99.90
3005;DHT22;1512;51.486;6.610;2022-08-02T06:22:54;17.40;99.90
3005;DHT22;1512;51.486;6.610;2022-08-02T06:27:11;17.50;99.90
3005;DHT22;1512;51.486;6.610;2022-08-02T06:31:31;17.60;99.90
3005;DHT22;1512;51.486;6.610;2022-08-02T06:36:40;17.80;99.90
3005;DHT22;1512;51.486;6.610;2022-08-02T06:40:34;18.00;99.90
3005;DHT22;1512;51.486;6.610;2022-08-02T06:44:49;18.20;99.90
3005;DHT22;1512;51.486;6.610;2022-08-02T06:49:12;18.40;99.90
3005;DHT22;1512;51.486;6.610;2022-08-02T06:53:25;18.50;99.90
3005;DHT22;1512;51.486;6.610;2022-08-02T06:57:44;18.60;99.90
3005;DHT22;1512;51.486;6.610;2022-08-02T07:02:02;18.80;99.90
3005;DHT22;1512;51.486;6.610;2022-08-02T07:06:17;19.00;99.90
3005;DHT22;1512;51.486;6.610;2022-08-02T07:10:31;19.10;99.90
3005;DHT22;1512;51.486;6.610;2022-08-02T07:14:51;19.20;99.90
3005;DHT22;1512;51.486;6.610;2022-08-02T07:19:08;19.30;99.90
3005;DHT22;1512;51.486;6.610;2022-08-02T07:23:38;19.40;99.90
3005;DHT22;1512;51.486;6.610;2022-08-02T07:27:56;19.50;99.90
3005;DHT22;1512;51.486;6.610;2022-08-02T07:32:15;19.60;99.90
3005;DHT22;1512;51.486;6.610;2022-08-02T07:36:39;19.70;99.90
3005;DHT22;1512;51.486;6.610;2022-08-02T07:40:56;19.90;99.90
3005;DHT22;1512;51.486;6.610;2022-08-02T07:45:13;20.00;99.90
3005;DHT22;1512;51.486;6.610;2022-08-02T07:53:56;20.40;99.90
3005;DHT22;1512;51.486;6.610;2022-08-02T07:58:18;20.60;99.90
3005;DHT22;1512;51.486;6.610;2022-08-02T08:02:53;20.70;99.90
3005;DHT22;1512;51.486;6.610;2022-08-02T08:07:23;21.00;99.90
3005;DHT22;1512;51.486;6.610;2022-08-02T08:11:38;21.20;99.90
3005;DHT22;1512;51.486;6.610;2022-08-02T08:15:59;21.50;99.90
3005;DHT22;1512;51.486;6.610;2022-08-02T08:20:32;21.70;99.90
3005;DHT22;1512;51.486;6.610;2022-08-02T08:24:54;21.90;99.90
3005;DHT22;1512;51.486;6.610;2022-08-02T08:29:15;22.10;99.90
3005;DHT22;1512;51.486;6.610;2022-08-02T08:33:57;22.30;99.90
3005;DHT22;1512;51.486;6.610;2022-08-02T08:38:12;22.50;99.90
3005;DHT22;1512;51.486;6.610;2022-08-02T08:42:44;22.70;99.90
3005;DHT22;1512;51.486;6.610;2022-08-02T08:46:59;22.80;99.90
3005;DHT22;1512;51.486;6.610;2022-08-02T08:51:21;23.00;99.90
3005;DHT22;1512;51.486;6.610;2022-08-02T08:56:03;23.00;99.90
3005;DHT22;1512;51.486;6.610;2022-08-02T09:00:23;23.10;99.90
3005;DHT22;1512;51.486;6.610;2022-08-02T09:05:05;23.30;99.90
3005;DHT22;1512;51.486;6.610;2022-08-02T09:09:34;23.50;99.90
3005;DHT22;1512;51.486;6.610;2022-08-02T09:14:10;23.70;99.90
3005;DHT22;1512;51.486;6.610;2022-08-02T09:18:52;23.90;99.90
3005;DHT22;1512;51.486;6.610;2022-08-02T09:23:11;24.10;99.90
3005;DHT22;1512;51.486;6.610;2022-08-02T09:27:44;24.30;99.90
3005;DHT22;1512;51.486;6.610;2022-08-02T09:32:03;24.40;99.90
3005;DHT22;1512;51.486;6.610;2022-08-02T09:36:29;24.60;99.90
3005;DHT22;1512;51.486;6.610;2022-08-02T09:40:54;24.80;99.90
3005;DHT22;1512;51.486;6.610;2022-08-02T09:45:20;25.00;99.90
3005;DHT22;1512;51.486;6.610;2022-08-02T09:49:45;25.10;99.90
3005;DHT22;1512;51.486;6.610;2022-08-02T09:54:24;25.40;99.90
3005;DHT22;1512;51.486;6.610;2022-08-02T09:58:41;25.50;99.90
3005;DHT22;1512;51.486;6.610;2022-08-02T10:03:11;25.40;99.90
3005;DHT22;1512;51.486;6.610;2022-08-02T10:07:47;25.30;99.90
3005;DHT22;1512;51.486;6.610;2022-08-02T10:12:11;25.40;99.90
3005;DHT22;1512;51.486;6.610;2022-08-02T10:16:43;25.50;99.90
3005;DHT22;1512;51.486;6.610;2022-08-02T10:21:02;25.60;99.90
3005;DHT22;1512;51.486;6.610;2022-08-02T10:25:20;25.60;99.90
3005;DHT22;1512;51.486;6.610;2022-08-02T10:29:37;25.50;99.90
3005;DHT22;1512;51.486;6.610;2022-08-02T10:33:51;25.50;99.90
3005;DHT22;1512;51.486;6.610;2022-08-02T10:38:10;25.60;99.90
3005;DHT22;1512;51.486;6.610;2022-08-02T10:42:48;25.60;99.90
3005;DHT22;1512;51.486;6.610;2022-08-02T10:47:28;25.70;99.90
3005;DHT22;1512;51.486;6.610;2022-08-02T10:56:44;26.30;99.90
3005;DHT22;1512;51.486;6.610;2022-08-02T11:06:13;26.90;99.90
3005;DHT22;1512;51.486;6.610;2022-08-02T11:15:12;26.60;99.90
3005;DHT22;1512;51.486;6.610;2022-08-02T11:20:16;26.50;99.90
3005;DHT22;1512;51.486;6.610;2022-08-02T11:24:34;26.40;99.90
3005;DHT22;1512;51.486;6.610;2022-08-02T11:28:51;26.40;99.90
3005;DHT22;1512;51.486;6.610;2022-08-02T11:33:16;26.60;99.90
3005;DHT22;1512;51.486;6.610;2022-08-02T11:37:51;27.00;99.90
3005;DHT22;1512;51.486;6.610;2022-08-02T11:42:01;27.20;99.90
3005;DHT22;1512;51.486;6.610;2022-08-02T11:46:30;27.40;99.90
3005;DHT22;1512;51.486;6.610;2022-08-02T11:51:01;27.50;99.90
3005;DHT22;1512;51.486;6.610;2022-08-02T11:55:11;27.40;99.90
3005;DHT22;1512;51.486;6.610;2022-08-02T11:59:28;27.20;99.90
3005;DHT22;1512;51.486;6.610;2022-08-02T12:03:49;26.90;99.90
3005;DHT22;1512;51.486;6.610;2022-08-02T12:08:09;26.80;99.90
3005;DHT22;1512;51.486;6.610;2022-08-02T12:12:27;27.00;99.90
3005;DHT22;1512;51.486;6.610;2022-08-02T12:16:42;27.30;99.90
3005;DHT22;1512;51.486;6.610;2022-08-02T12:21:23;27.50;99.60
3005;DHT22;1512;51.486;6.610;2022-08-02T12:25:37;27.60;97.70
3005;DHT22;1512;51.486;6.610;2022-08-02T12:29:59;27.70;97.40
3005;DHT22;1512;51.486;6.610;2022-08-02T12:34:19;27.80;97.50
3005;DHT22;1512;51.486;6.610;2022-08-02T12:38:32;27.80;95.60
3005;DHT22;1512;51.486;6.610;2022-08-02T12:43:00;27.80;95.70
3005;DHT22;1512;51.486;6.610;2022-08-02T12:47:12;27.90;92.10
3005;DHT22;1512;51.486;6.610;2022-08-02T12:51:40;27.70;92.90
3005;DHT22;1512;51.486;6.610;2022-08-02T12:55:58;27.70;92.10
3005;DHT22;1512;51.486;6.610;2022-08-02T13:00:21;27.80;90.20
3005;DHT22;1512;51.486;6.610;2022-08-02T13:04:34;27.70;91.90
3005;DHT22;1512;51.486;6.610;2022-08-02T13:08:52;27.70;89.60
3005;DHT22;1512;51.486;6.610;2022-08-02T13:13:26;27.80;91.40
3005;DHT22;1512;51.486;6.610;2022-08-02T13:17:35;27.90;87.00
3005;DHT22;1512;51.486;6.610;2022-08-02T13:21:53;28.00;90.80
3005;DHT22;1512;51.486;6.610;2022-08-02T13:26:16;28.20;91.30
3005;DHT22;1512;51.486;6.610;2022-08-02T13:30:49;28.40;89.80
3005;DHT22;1512;51.486;6.610;2022-08-02T13:35:14;28.40;91.20
3005;DHT22;1512;51.486;6.610;2022-08-02T13:39:42;28.60;89.10
3005;DHT22;1512;51.486;6.610;2022-08-02T13:44:03;28.80;85.60
3005;DHT22;1512;51.486;6.610;2022-08-02T13:48:18;28.80;84.90
3005;DHT22;1512;51.486;6.610;2022-08-02T13:52:49;28.90;86.50
3005;DHT22;1512;51.486;6.610;2022-08-02T13:57:20;29.00;83.90
3005;DHT22;1512;51.486;6.610;2022-08-02T14:01:52;29.10;82.50
3005;DHT22;1512;51.486;6.610;2022-08-02T14:06:29;29.00;82.00
3005;DHT22;1512;51.486;6.610;2022-08-02T14:10:41;29.10;78.30
3005;DHT22;1512;51.486;6.610;2022-08-02T14:15:20;29.10;76.20
3005;DHT22;1512;51.486;6.610;2022-08-02T14:19:27;29.30;74.20
3005;DHT22;1512;51.486;6.610;2022-08-02T14:23:44;29.40;77.00
3005;DHT22;1512;51.486;6.610;2022-08-02T14:28:07;29.50;72.00
3005;DHT22;1512;51.486;6.610;2022-08-02T14:32:58;29.40;73.20
3005;DHT22;1512;51.486;6.610;2022-08-02T14:37:16;29.50;71.20
3005;DHT22;1512;51.486;6.610;2022-08-02T14:41:32;29.40;72.10
3005;DHT22;1512;51.486;6.610;2022-08-02T14:45:56;29.50;72.00
3005;DHT22;1512;51.486;6.610;2022-08-02T14:50:11;29.40;71.80
3005;DHT22;1512;51.486;6.610;2022-08-02T14:54:36;29.60;72.00
3005;DHT22;1512;51.486;6.610;2022-08-02T14:58:52;29.70;67.50
3005;DHT22;1512;51.486;6.610;2022-08-02T15:03:09;29.50;69.00
3005;DHT22;1512;51.486;6.610;2022-08-02T15:07:37;29.60;66.80
3005;DHT22;1512;51.486;6.610;2022-08-02T15:11:48;29.50;67.50
3005;DHT22;1512;51.486;6.610;2022-08-02T15:16:16;29.50;67.00
3005;DHT22;1512;51.486;6.610;2022-08-02T15:20:26;29.50;63.10
3005;DHT22;1512;51.486;6.610;2022-08-02T15:24:35;29.40;65.30
3005;DHT22;1512;51.486;6.610;2022-08-02T15:28:43;29.40;67.50
3005;DHT22;1512;51.486;6.610;2022-08-02T15:32:52;29.50;65.50
3005;DHT22;1512;51.486;6.610;2022-08-02T15:37:01;29.30;66.30
3005;DHT22;1512;51.486;6.610;2022-08-02T15:41:10;29.20;67.50
3005;DHT22;1512;51.486;6.610;2022-08-02T15:45:19;29.30;66.60
3005;DHT22;1512;51.486;6.610;2022-08-02T15:49:27;29.30;67.20
3005;DHT22;1512;51.486;6.610;2022-08-02T15:53:36;29.30;68.20
3005;DHT22;1512;51.486;6.610;2022-08-02T15:57:45;29.40;66.00
3005;DHT22;1512;51.486;6.610;2022-08-02T16:01:53;29.40;63.90
3005;DHT22;1512;51.486;6.610;2022-08-02T16:06:02;29.30;65.90
3005;DHT22;1512;51.486;6.610;2022-08-02T16:10:11;29.30;67.00
3005;DHT22;1512;51.486;6.610;2022-08-02T16:14:20;29.30;65.20
3005;DHT22;1512;51.486;6.610;2022-08-02T16:18:29;29.30;66.10
3005;DHT22;1512;51.486;6.610;2022-08-02T16:22:38;29.10;68.10
3005;DHT22;1512;51.486;6.610;2022-08-02T16:26:47;29.10;67.60
3005;DHT22;1512;51.486;6.610;2022-08-02T16:30:56;29.00;68.30
3005;DHT22;1512;51.486;6.610;2022-08-02T16:35:07;29.00;67.30
3005;DHT22;1512;51.486;6.610;2022-08-02T16:39:15;29.10;67.70
3005;DHT22;1512;51.486;6.610;2022-08-02T16:43:24;29.00;67.50
3005;DHT22;1512;51.486;6.610;2022-08-02T16:47:34;29.00;67.90
3005;DHT22;1512;51.486;6.610;2022-08-02T16:51:45;29.00;67.00
3005;DHT22;1512;51.486;6.610;2022-08-02T16:55:54;28.90;66.20
3005;DHT22;1512;51.486;6.610;2022-08-02T17:00:04;28.90;67.70
3005;DHT22;1512;51.486;6.610;2022-08-02T17:04:13;28.90;65.90
3005;DHT22;1512;51.486;6.610;2022-08-02T17:08:22;28.80;65.20
3005;DHT22;1512;51.486;6.610;2022-08-02T17:12:33;28.80;66.40
3005;DHT22;1512;51.486;6.610;2022-08-02T17:16:42;28.80;66.60
3005;DHT22;1512;51.486;6.610;2022-08-02T17:20:50;28.70;67.30
3005;DHT22;1512;51.486;6.610;2022-08-02T17:24:59;28.80;66.70
3005;DHT22;1512;51.486;6.610;2022-08-02T17:29:09;28.70;68.50
3005;DHT22;1512;51.486;6.610;2022-08-02T17:33:39;28.60;67.70
3005;DHT22;1512;51.486;6.610;2022-08-02T17:37:48;28.60;68.90
3005;DHT22;1512;51.486;6.610;2022-08-02T17:46:39;28.40;67.10
3005;DHT22;1512;51.486;6.610;2022-08-02T17:50:47;28.30;68.00
3005;DHT22;1512;51.486;6.610;2022-08-02T17:54:58;28.20;69.30
3005;DHT22;1512;51.486;6.610;2022-08-02T17:59:15;28.10;69.30
3005;DHT22;1512;51.486;6.610;2022-08-02T18:03:25;28.10;69.40
3005;DHT22;1512;51.486;6.610;2022-08-02T18:07:36;27.90;70.20
3005;DHT22;1512;51.486;6.610;2022-08-02T18:11:47;27.90;70.60
3005;DHT22;1512;51.486;6.610;2022-08-02T18:15:57;27.80;72.00
3005;DHT22;1512;51.486;6.610;2022-08-02T18:20:07;27.70;73.20
3005;DHT22;1512;51.486;6.610;2022-08-02T18:24:17;27.60;73.00
3005;DHT22;1512;51.486;6.610;2022-08-02T18:28:28;27.50;74.50
3005;DHT22;1512;51.486;6.610;2022-08-02T18:32:37;27.40;76.00
3005;DHT22;1512;51.486;6.610;2022-08-02T18:36:48;27.30;77.70
3005;DHT22;1512;51.486;6.610;2022-08-02T18:40:56;27.10;77.70
3005;DHT22;1512;51.486;6.610;2022-08-02T18:45:07;27.00;79.60
3005;DHT22;1512;51.486;6.610;2022-08-02T18:49:18;26.90;81.70
3005;DHT22;1512;51.486;6.610;2022-08-02T18:53:27;26.80;84.50
3005;DHT22;1512;51.486;6.610;2022-08-02T18:57:38;26.70;86.60
3005;DHT22;1512;51.486;6.610;2022-08-02T19:01:50;26.60;89.90
3005;DHT22;1512;51.486;6.610;2022-08-02T19:05:58;26.40;90.90
3005;DHT22;1512;51.486;6.610;2022-08-02T19:10:07;26.30;92.00
3005;DHT22;1512;51.486;6.610;2022-08-02T19:14:18;26.20;93.30
3005;DHT22;1512;51.486;6.610;2022-08-02T19:18:29;26.10;94.10
3005;DHT22;1512;51.486;6.610;2022-08-02T19:22:39;25.90;95.90
3005;DHT22;1512;51.486;6.610;2022-08-02T19:26:47;25.80;97.80
3005;DHT22;1512;51.486;6.610;2022-08-02T19:30:58;25.70;99.30
3005;DHT22;1512;51.486;6.610;2022-08-02T19:35:08;25.60;99.90
3005;DHT22;1512;51.486;6.610;2022-08-02T19:39:20;25.40;99.90
3005;DHT22;1512;51.486;6.610;2022-08-02T19:43:32;25.30;99.90
3005;DHT22;1512;51.486;6.610;2022-08-02T19:47:42;25.20;99.90
3005;DHT22;1512;51.486;6.610;2022-08-02T19:51:52;25.10;99.90
3005;DHT22;1512;51.486;6.610;2022-08-02T19:56:03;25.00;99.90
3005;DHT22;1512;51.486;6.610;2022-08-02T20:00:12;24.90;99.90
3005;DHT22;1512;51.486;6.610;2022-08-02T20:04:22;24.80;99.90
3005;DHT22;1512;51.486;6.610;2022-08-02T20:08:33;24.60;99.90
3005;DHT22;1512;51.486;6.610;2022-08-02T20:12:44;24.60;99.90
3005;DHT22;1512;51.486;6.610;2022-08-02T20:16:52;24.50;99.90
3005;DHT22;1512;51.486;6.610;2022-08-02T20:21:01;24.40;99.90
3005;DHT22;1512;51.486;6.610;2022-08-02T20:25:09;24.30;99.90
3005;DHT22;1512;51.486;6.610;2022-08-02T20:29:20;24.20;99.90
3005;DHT22;1512;51.486;6.610;2022-08-02T20:33:30;24.10;99.90
3005;DHT22;1512;51.486;6.610;2022-08-02T20:37:39;24.00;99.90
3005;DHT22;1512;51.486;6.610;2022-08-02T20:41:49;23.90;99.90
3005;DHT22;1512;51.486;6.610;2022-08-02T20:45:59;23.80;99.90
3005;DHT22;1512;51.486;6.610;2022-08-02T20:50:09;23.70;99.90
3005;DHT22;1512;51.486;6.610;2022-08-02T20:54:37;23.70;99.90
3005;DHT22;1512;51.486;6.610;2022-08-02T20:58:46;23.60;99.90
3005;DHT22;1512;51.486;6.610;2022-08-02T21:02:56;23.50;99.90
3005;DHT22;1512;51.486;6.610;2022-08-02T21:07:06;23.40;99.90
3005;DHT22;1512;51.486;6.610;2022-08-02T21:11:16;23.40;99.90
3005;DHT22;1512;51.486;6.610;2022-08-02T21:15:28;23.30;99.90
3005;DHT22;1512;51.486;6.610;2022-08-02T21:19:39;23.30;99.90
3005;DHT22;1512;51.486;6.610;2022-08-02T21:23:49;23.20;99.90
3005;DHT22;1512;51.486;6.610;2022-08-02T21:27:59;23.10;99.90
3005;DHT22;1512;51.486;6.610;2022-08-02T21:32:09;23.00;99.90
3005;DHT22;1512;51.486;6.610;2022-08-02T21:36:17;23.00;99.90
3005;DHT22;1512;51.486;6.610;2022-08-02T21:40:26;22.90;99.90
3005;DHT22;1512;51.486;6.610;2022-08-02T21:44:42;22.90;99.90
3005;DHT22;1512;51.486;6.610;2022-08-02T21:48:53;22.80;99.90
3005;DHT22;1512;51.486;6.610;2022-08-02T21:53:03;22.80;99.90
3005;DHT22;1512;51.486;6.610;2022-08-02T21:57:14;22.70;99.90
3005;DHT22;1512;51.486;6.610;2022-08-02T22:01:23;22.60;99.90
3005;DHT22;1512;51.486;6.610;2022-08-02T22:05:33;22.60;99.90
3005;DHT22;1512;51.486;6.610;2022-08-02T22:09:44;22.50;99.90
3005;DHT22;1512;51.486;6.610;2022-08-02T22:13:53;22.40;99.90
3005;DHT22;1512;51.486;6.610;2022-08-02T22:18:01;22.30;99.90
3005;DHT22;1512;51.486;6.610;2022-08-02T22:22:10;22.30;99.90
3005;DHT22;1512;51.486;6.610;2022-08-02T22:26:19;22.20;99.90
3005;DHT22;1512;51.486;6.610;2022-08-02T22:30:29;22.20;99.90
3005;DHT22;1512;51.486;6.610;2022-08-02T22:34:38;22.10;99.90
3005;DHT22;1512;51.486;6.610;2022-08-02T22:38:48;22.10;99.90
3005;DHT22;1512;51.486;6.610;2022-08-02T22:42:57;22.00;99.90
3005;DHT22;1512;51.486;6.610;2022-08-02T22:47:05;22.00;99.90
3005;DHT22;1512;51.486;6.610;2022-08-02T22:51:16;22.00;99.90
3005;DHT22;1512;51.486;6.610;2022-08-02T22:55:26;21.90;99.90
3005;DHT22;1512;51.486;6.610;2022-08-02T22:59:55;21.90;99.90
3005;DHT22;1512;51.486;6.610;2022-08-02T23:04:04;21.80;99.90
3005;DHT22;1512;51.486;6.610;2022-08-02T23:08:13;21.80;99.90
3005;DHT22;1512;51.486;6.610;2022-08-02T23:12:21;21.70;99.90
3005;DHT22;1512;51.486;6.610;2022-08-02T23:16:31;21.70;99.90
3005;DHT22;1512;51.486;6.610;2022-08-02T23:20:58;21.70;99.90
3005;DHT22;1512;51.486;6.610;2022-08-02T23:25:07;21.60;99.90
3005;DHT22;1512;51.486;6.610;2022-08-02T23:29:16;21.60;99.90
3005;DHT22;1512;51.486;6.610;2022-08-02T23:33:26;21.60;99.90
3005;DHT22;1512;51.486;6.610;2022-08-02T23:37:35;21.40;99.90
3005;DHT22;1512;51.486;6.610;2022-08-02T23:41:45;21.40;99.90
3005;DHT22;1512;51.486;6.610;2022-08-02T23:46:02;21.30;99.90
3005;DHT22;1512;51.486;6.610;2022-08-02T23:50:11;21.20;99.90
3005;DHT22;1512;51.486;6.610;2022-08-02T23:54:19;21.30;99.90
3005;DHT22;1512;51.486;6.610;2022-08-02T23:58:29;21.30;99.90
